createdAt,value
2018-09-01T00:00:13.351Z,4.43
2018-09-01T00:02:41.636Z,5.47
2018-09-01T00:05:09.969Z,4.60
2018-09-01T00:07:38.256Z,5.43
2018-09-01T00:10:06.574Z,5.60
2018-09-01T00:12:34.917Z,5.27
2018-09-01T00:15:03.198Z,5.63
2018-09-01T00:17:31.989Z,5.57
2018-09-01T00:20:01.637Z,5.60
2018-09-01T00:22:30.367Z,5.53
2018-09-01T00:24:58.746Z,5.23
2018-09-01T00:27:27.117Z,5.93
2018-09-01T00:29:55.405Z,5.43
2018-09-01T00:32:23.685Z,6.87
2018-09-01T00:34:52.413Z,5.50
2018-09-01T00:37:25.993Z,5.50
2018-09-01T00:39:54.246Z,5.83
2018-09-01T00:42:22.631Z,4.97
2018-09-01T00:44:50.913Z,5.07
2018-09-01T00:47:19.225Z,4.67
2018-09-01T00:49:48.602Z,4.53
2018-09-01T00:52:16.855Z,5.00
2018-09-01T00:54:45.812Z,5.10
2018-09-01T00:57:15.146Z,4.27
2018-09-01T00:59:43.413Z,4.60
2018-09-01T01:02:11.690Z,5.03
2018-09-01T01:04:40.094Z,4.87
2018-09-01T01:07:08.435Z,6.23
2018-09-01T01:09:37.829Z,6.47
2018-09-01T01:12:06.125Z,6.07
2018-09-01T01:14:34.447Z,5.70
2018-09-01T01:17:02.780Z,4.67
2018-09-01T01:19:31.077Z,7.33
2018-09-01T01:21:59.368Z,5.63
2018-09-01T01:24:27.610Z,6.63
2018-09-01T01:26:56.461Z,5.73
2018-09-01T01:29:26.032Z,5.57
2018-09-01T01:31:54.534Z,5.57
2018-09-01T01:34:23.193Z,5.83
2018-09-01T01:36:51.489Z,6.73
2018-09-01T01:39:19.729Z,5.17
2018-09-01T01:41:49.000Z,6.00
2018-09-01T01:44:18.303Z,6.40
2018-09-01T01:46:46.601Z,6.63
2018-09-01T01:49:14.837Z,6.50
2018-09-01T01:51:43.130Z,6.20
2018-09-01T01:54:12.554Z,6.80
2018-09-01T01:56:40.805Z,7.83
2018-09-01T01:59:09.091Z,7.63
2018-09-01T02:01:37.356Z,8.07
2018-09-01T02:04:06.717Z,7.43
2018-09-01T02:06:34.956Z,7.00
2018-09-01T02:09:04.206Z,8.20
2018-09-01T02:11:32.613Z,8.00
2018-09-01T02:14:01.945Z,6.60
2018-09-01T02:16:30.185Z,7.00
2018-09-01T02:18:58.460Z,8.00
2018-09-01T02:21:26.712Z,7.87
2018-09-01T02:23:54.986Z,7.47
2018-09-01T02:26:23.307Z,8.50
2018-09-01T02:28:51.581Z,9.20
2018-09-01T02:31:19.945Z,10.93
2018-09-01T02:33:48.227Z,8.30
2018-09-01T02:36:16.478Z,8.77
2018-09-01T02:38:44.752Z,7.53
2018-09-01T02:41:13.029Z,8.60
2018-09-01T02:43:42.425Z,10.43
2018-09-01T02:46:10.692Z,7.67
2018-09-01T02:48:40.066Z,8.23
2018-09-01T02:51:08.353Z,7.83
2018-09-01T02:53:36.604Z,7.90
2018-09-01T02:56:05.162Z,8.00
2018-09-01T02:58:33.445Z,7.60
2018-09-01T03:01:06.982Z,8.70
2018-09-01T03:03:35.237Z,9.27
2018-09-01T03:06:04.661Z,7.80
2018-09-01T03:08:32.929Z,7.90
2018-09-01T03:11:01.256Z,7.50
2018-09-01T03:13:30.729Z,8.87
2018-09-01T03:15:59.341Z,7.67
2018-09-01T03:18:27.609Z,7.77
2018-09-01T03:20:55.909Z,8.70
2018-09-01T03:23:24.161Z,7.73
2018-09-01T03:25:52.469Z,8.77
2018-09-01T03:28:21.823Z,8.43
2018-09-01T03:30:50.103Z,8.57
2018-09-01T03:33:18.422Z,8.50
2018-09-01T03:35:46.708Z,8.80
2018-09-01T03:38:15.027Z,8.90
2018-09-01T03:40:44.467Z,10.87
2018-09-01T03:43:12.758Z,9.43
2018-09-01T03:45:41.004Z,9.83
2018-09-01T03:48:09.330Z,10.40
2018-09-01T03:50:37.590Z,8.73
2018-09-01T03:53:05.925Z,10.53
2018-09-01T03:55:34.217Z,9.33
2018-09-01T03:58:02.825Z,11.77
2018-09-01T04:00:31.136Z,10.50
2018-09-01T04:02:59.429Z,10.00
2018-09-01T04:05:28.801Z,9.27
2018-09-01T04:07:57.105Z,9.93
2018-09-01T04:10:25.400Z,10.17
2018-09-01T04:12:53.744Z,11.80
2018-09-01T04:15:23.035Z,11.67
2018-09-01T04:17:51.329Z,12.00
2018-09-01T04:20:19.617Z,11.60
2018-09-01T04:22:47.922Z,11.50
2018-09-01T04:25:16.225Z,11.20
2018-09-01T04:27:44.533Z,11.43
2018-09-01T04:30:12.887Z,12.20
2018-09-01T04:32:42.228Z,12.20
2018-09-01T04:35:10.569Z,9.77
2018-09-01T04:37:38.869Z,13.80
2018-09-01T04:40:07.192Z,11.03
2018-09-01T04:42:35.469Z,11.50
2018-09-01T04:45:03.793Z,11.63
2018-09-01T04:47:32.069Z,11.20
2018-09-01T04:50:00.389Z,11.90
2018-09-01T04:52:28.677Z,9.60
2018-09-01T04:54:57.026Z,11.10
2018-09-01T04:57:25.361Z,9.47
2018-09-01T04:59:53.679Z,10.13
2018-09-01T05:02:21.945Z,8.93
2018-09-01T05:04:50.247Z,10.83
2018-09-01T05:07:18.533Z,10.80
2018-09-01T05:09:46.874Z,12.50
2018-09-01T05:12:15.853Z,11.37
2018-09-01T05:14:44.223Z,11.67
2018-09-01T05:17:12.596Z,10.13
2018-09-01T05:19:40.938Z,11.20
2018-09-01T05:22:09.233Z,9.80
2018-09-01T05:24:37.538Z,9.60
2018-09-01T05:27:06.157Z,10.30
2018-09-01T05:29:34.509Z,9.80
2018-09-01T05:32:02.830Z,8.77
2018-09-01T05:34:32.153Z,9.20
2018-09-01T05:37:00.455Z,10.00
2018-09-01T05:39:28.827Z,9.60
2018-09-01T05:41:57.145Z,9.23
2018-09-01T05:44:26.513Z,10.83
2018-09-01T05:46:54.881Z,10.90
2018-09-01T05:49:23.241Z,10.80
2018-09-01T05:51:51.567Z,10.47
2018-09-01T05:54:19.906Z,10.70
2018-09-01T05:56:48.199Z,8.40
2018-09-01T05:59:16.537Z,8.50
2018-09-01T06:01:44.959Z,8.17
2018-09-01T06:04:13.236Z,7.57
2018-09-01T06:06:41.553Z,7.80
2018-09-01T06:09:10.439Z,7.00
2018-09-01T06:11:39.846Z,8.87
2018-09-01T06:14:08.705Z,8.17
2018-09-01T06:16:37.405Z,8.10
2018-09-01T06:19:05.692Z,7.80
2018-09-01T06:21:34.265Z,7.77
2018-09-01T06:24:02.736Z,7.80
2018-09-01T06:26:30.908Z,7.87
2018-09-01T06:29:16.260Z,8.37
2018-09-01T06:31:50.069Z,7.70
2018-09-01T06:34:18.376Z,6.30
2018-09-01T06:36:46.754Z,6.73
2018-09-01T06:39:15.066Z,6.33
2018-09-01T06:41:43.365Z,6.73
2018-09-01T06:44:11.757Z,6.07
2018-09-01T06:46:40.051Z,6.00
2018-09-01T06:49:08.352Z,6.00
2018-09-01T06:51:37.074Z,5.50
2018-09-01T06:54:06.465Z,5.97
2018-09-01T06:56:34.860Z,5.80
2018-09-01T06:59:03.162Z,7.17
2018-09-01T07:01:32.553Z,6.00
2018-09-01T07:04:00.854Z,6.70
2018-09-01T07:06:29.168Z,6.03
2018-09-01T07:08:57.473Z,6.00
2018-09-01T07:11:25.876Z,6.67
2018-09-01T07:13:54.167Z,6.40
2018-09-01T07:16:22.498Z,6.60
2018-09-01T07:18:50.801Z,5.63
2018-09-01T07:21:19.146Z,6.03
2018-09-01T07:23:47.437Z,4.83
2018-09-01T07:26:15.713Z,6.20
2018-09-01T07:28:44.013Z,6.20
2018-09-01T07:31:12.583Z,6.77
2018-09-01T07:33:40.629Z,6.03
2018-09-01T07:36:12.365Z,5.77
2018-09-01T07:38:40.663Z,6.33
2018-09-01T07:41:08.936Z,5.60
2018-09-01T07:43:37.233Z,5.70
2018-09-01T07:46:05.504Z,5.20
2018-09-01T07:48:33.885Z,5.30
2018-09-01T07:51:02.295Z,4.83
2018-09-01T07:53:30.614Z,4.33
2018-09-01T07:56:00.115Z,4.07
2018-09-01T07:58:28.309Z,3.73
2018-09-01T08:00:57.669Z,3.77
2018-09-01T08:03:27.107Z,4.10
2018-09-01T08:05:55.456Z,3.47
2018-09-01T08:08:23.733Z,4.10
2018-09-01T08:10:52.081Z,3.50
2018-09-01T08:13:20.361Z,3.90
2018-09-01T08:15:49.838Z,3.80
2018-09-01T08:18:19.397Z,3.30
2018-09-01T08:20:47.821Z,3.40
2018-09-01T08:23:16.140Z,4.57
2018-09-01T08:25:45.571Z,4.77
2018-09-01T08:28:14.917Z,3.90
2018-09-01T08:30:43.212Z,4.70
2018-09-01T08:33:11.537Z,4.80
2018-09-01T08:35:39.977Z,4.50
2018-09-01T08:38:08.254Z,4.13
2018-09-01T08:40:36.534Z,4.80
2018-09-01T08:43:05.173Z,4.40
2018-09-01T08:45:33.449Z,4.40
2018-09-01T08:48:01.720Z,3.37
2018-09-01T08:50:30.129Z,3.80
2018-09-01T08:52:58.457Z,3.80
2018-09-01T08:55:26.761Z,2.70
2018-09-01T08:57:55.137Z,2.97
2018-09-01T09:00:23.403Z,3.60
2018-09-01T09:02:51.693Z,2.90
2018-09-01T09:05:19.945Z,3.20
2018-09-01T09:07:48.393Z,3.00
2018-09-01T09:10:17.738Z,3.00
2018-09-01T09:12:46.033Z,3.10
2018-09-01T09:15:14.377Z,3.20
2018-09-01T09:17:42.801Z,3.40
2018-09-01T09:20:12.062Z,3.10
2018-09-01T09:22:40.337Z,3.80
2018-09-01T09:25:08.729Z,3.40
2018-09-01T09:27:36.985Z,3.10
2018-09-01T09:30:05.607Z,3.20
2018-09-01T09:32:33.893Z,3.03
2018-09-01T09:35:02.249Z,3.63
2018-09-01T09:37:30.516Z,4.10
2018-09-01T09:39:58.898Z,4.77
2018-09-01T09:42:27.169Z,3.57
2018-09-01T09:44:55.572Z,3.93
2018-09-01T09:47:24.045Z,2.90
2018-09-01T09:49:52.384Z,3.30
2018-09-01T09:52:20.772Z,3.13
2018-09-01T09:54:49.203Z,2.60
2018-09-01T09:57:17.562Z,2.40
2018-09-01T09:59:45.857Z,2.23
2018-09-01T10:02:14.141Z,2.77
2018-09-01T10:04:42.441Z,1.77
2018-09-01T10:07:10.745Z,2.30
2018-09-01T10:09:39.137Z,2.20
2018-09-01T10:12:07.405Z,2.10
2018-09-01T10:14:35.671Z,2.23
2018-09-01T10:17:03.965Z,2.77
2018-09-01T10:19:32.244Z,3.20
2018-09-01T10:22:00.541Z,2.10
2018-09-01T10:24:28.809Z,2.37
2018-09-01T10:26:58.284Z,1.90
2018-09-01T10:29:26.484Z,2.30
2018-09-01T10:31:54.776Z,2.30
2018-09-01T10:34:23.049Z,2.67
2018-09-01T10:36:51.344Z,2.50
2018-09-01T10:39:19.601Z,2.00
2018-09-01T10:41:47.934Z,2.80
2018-09-01T10:44:16.254Z,2.17
2018-09-01T10:46:44.578Z,3.57
2018-09-01T10:49:12.861Z,2.40
2018-09-01T10:51:42.204Z,2.43
2018-09-01T10:54:10.538Z,2.13
2018-09-01T10:56:38.830Z,2.87
2018-09-01T10:59:07.294Z,2.13
2018-09-01T11:01:35.441Z,2.23
2018-09-01T11:04:03.710Z,2.17
2018-09-01T11:06:31.997Z,1.47
2018-09-01T11:09:00.260Z,2.13
2018-09-01T11:11:28.545Z,1.70
2018-09-01T11:13:56.821Z,2.03
2018-09-01T11:16:25.129Z,2.00
2018-09-01T11:18:53.393Z,2.20
2018-09-01T11:21:21.643Z,1.80
2018-09-01T11:23:49.952Z,1.47
2018-09-01T11:26:18.246Z,1.77
2018-09-01T11:28:46.550Z,1.97
2018-09-01T11:31:14.842Z,2.20
2018-09-01T11:33:43.172Z,2.20
2018-09-01T11:36:11.453Z,1.73
2018-09-01T11:38:39.776Z,1.63
2018-09-01T11:41:08.235Z,2.40
2018-09-01T11:43:36.561Z,2.27
2018-09-01T11:46:06.068Z,1.80
2018-09-01T11:48:34.726Z,2.10
2018-09-01T11:51:02.997Z,2.53
2018-09-01T11:53:31.350Z,2.27
2018-09-01T11:55:59.681Z,1.90
2018-09-01T11:58:28.015Z,2.40
2018-09-01T12:00:57.459Z,3.20
2018-09-01T12:03:26.818Z,2.60
2018-09-01T12:05:56.160Z,2.60
2018-09-01T12:08:25.570Z,2.67
2018-09-01T12:10:54.157Z,2.13
2018-09-01T12:13:23.510Z,2.73
2018-09-01T12:15:51.792Z,2.67
2018-09-01T12:18:20.058Z,3.23
2018-09-01T12:20:50.348Z,2.23
2018-09-01T12:23:18.614Z,1.80
2018-09-01T12:25:47.966Z,2.20
2018-09-01T12:28:16.281Z,1.77
2018-09-01T12:30:45.705Z,1.77
2018-09-01T12:33:14.065Z,1.93
2018-09-01T12:35:42.376Z,1.77
2018-09-01T12:38:10.658Z,1.93
2018-09-01T12:40:39.391Z,1.70
2018-09-01T12:43:08.997Z,2.10
2018-09-01T12:45:40.849Z,1.87
2018-09-01T12:48:09.149Z,2.80
2018-09-01T12:50:39.562Z,1.53
2018-09-01T12:53:07.906Z,2.07
2018-09-01T12:55:38.213Z,1.50
2018-09-01T12:58:06.533Z,2.80
2018-09-01T13:00:34.818Z,2.23
2018-09-01T13:03:03.285Z,2.30
2018-09-01T13:05:31.724Z,1.60
2018-09-01T13:08:00.158Z,2.27
2018-09-01T13:10:28.433Z,2.07
2018-09-01T13:12:58.877Z,2.30
2018-09-01T13:15:27.181Z,1.50
2018-09-01T13:17:55.517Z,1.65
2018-09-01T13:20:23.785Z,2.07
2018-09-01T13:22:52.114Z,2.23
2018-09-01T13:25:20.477Z,2.10
2018-09-01T13:27:48.807Z,1.60
2018-09-01T13:30:17.161Z,2.20
2018-09-01T13:32:45.485Z,2.13
2018-09-01T13:35:14.888Z,1.70
2018-09-01T13:37:45.201Z,1.90
2018-09-01T13:40:18.141Z,1.70
2018-09-01T13:42:46.390Z,3.13
2018-09-01T13:45:14.681Z,2.63
2018-09-01T13:47:42.985Z,3.57
2018-09-01T13:50:11.351Z,2.83
2018-09-01T13:52:39.701Z,2.97
2018-09-01T13:55:07.997Z,3.17
2018-09-01T13:57:36.254Z,2.47
2018-09-01T14:00:04.595Z,3.30
2018-09-01T14:02:32.894Z,2.67
2018-09-01T14:05:01.182Z,3.13
2018-09-01T14:07:29.449Z,3.00
2018-09-01T14:09:58.461Z,3.20
2018-09-01T14:12:26.770Z,2.80
2018-09-01T14:14:55.178Z,4.20
2018-09-01T14:17:23.398Z,3.10
2018-09-01T14:19:51.701Z,3.67
2018-09-01T14:22:19.994Z,2.83
2018-09-01T14:24:48.363Z,3.33
2018-09-01T14:27:16.646Z,2.93
2018-09-01T14:29:45.538Z,2.80
2018-09-01T14:32:13.806Z,2.67
2018-09-01T14:34:42.124Z,2.30
2018-09-01T14:37:10.479Z,2.23
2018-09-01T14:39:39.859Z,2.57
2018-09-01T14:42:08.142Z,3.27
2018-09-01T14:44:36.472Z,2.80
2018-09-01T14:47:05.870Z,2.90
2018-09-01T14:49:34.162Z,3.00
2018-09-01T14:52:02.473Z,3.73
2018-09-01T14:54:31.948Z,3.30
2018-09-01T14:57:00.709Z,3.43
2018-09-01T14:59:28.974Z,3.10
2018-09-01T15:01:57.267Z,2.83
2018-09-01T15:04:25.561Z,2.63
2018-09-01T15:06:54.461Z,3.70
2018-09-01T15:09:22.749Z,3.47
2018-09-01T15:11:51.125Z,2.77
2018-09-01T15:14:20.525Z,3.50
2018-09-01T15:16:48.834Z,2.70
2018-09-01T15:19:17.157Z,2.60
2018-09-01T15:21:45.477Z,2.07
2018-09-01T15:24:13.801Z,2.30
2018-09-01T15:26:42.138Z,2.37
2018-09-01T15:29:10.473Z,2.03
2018-09-01T15:31:39.859Z,2.10
2018-09-01T15:34:09.252Z,2.63
2018-09-01T15:36:37.617Z,2.73
2018-09-01T15:39:06.677Z,2.43
2018-09-01T15:41:35.013Z,2.53
2018-09-01T15:44:03.545Z,2.20
2018-09-01T15:46:31.886Z,2.07
2018-09-01T15:49:00.233Z,3.43
2018-09-01T15:51:28.506Z,2.23
2018-09-01T15:53:56.915Z,2.30
2018-09-01T15:56:25.228Z,2.13
2018-09-01T15:58:53.533Z,1.93
2018-09-01T16:01:21.834Z,2.30
2018-09-01T16:03:50.206Z,1.67
2018-09-01T16:06:19.445Z,2.20
2018-09-01T16:08:47.738Z,2.20
2018-09-01T16:11:19.665Z,2.13
2018-09-01T16:13:49.033Z,2.30
2018-09-01T16:16:17.300Z,1.90
2018-09-01T16:18:45.590Z,2.20
2018-09-01T16:21:13.942Z,1.83
2018-09-01T16:23:42.246Z,2.13
2018-09-01T16:26:10.552Z,1.83
2018-09-01T16:28:40.085Z,2.20
2018-09-01T16:31:10.397Z,2.07
2018-09-01T16:33:38.657Z,2.30
2018-09-01T16:36:06.979Z,1.80
2018-09-01T16:38:35.321Z,1.73
2018-09-01T16:41:03.802Z,2.10
2018-09-01T16:43:32.077Z,2.10
2018-09-01T16:46:01.568Z,2.03
2018-09-01T16:48:29.856Z,2.00
2018-09-01T16:50:58.181Z,1.93
2018-09-01T16:53:27.537Z,2.83
2018-09-01T16:55:55.826Z,4.87
2018-09-01T16:58:26.137Z,3.00
2018-09-01T17:00:56.618Z,2.87
2018-09-01T17:03:24.830Z,3.23
2018-09-01T17:05:53.154Z,2.70
2018-09-01T17:08:21.439Z,2.30
2018-09-01T17:10:50.904Z,3.13
2018-09-01T17:13:19.187Z,3.27
2018-09-01T17:15:47.479Z,2.80
2018-09-01T17:18:16.807Z,2.50
2018-09-01T17:20:45.157Z,2.73
2018-09-01T17:23:13.437Z,2.13
2018-09-01T17:25:41.777Z,3.07
2018-09-01T17:28:10.058Z,2.90
2018-09-01T17:30:38.461Z,2.83
2018-09-01T17:33:06.897Z,3.10
2018-09-01T17:35:35.509Z,3.03
2018-09-01T17:38:03.806Z,2.60
2018-09-01T17:40:32.061Z,2.83
2018-09-01T17:43:01.629Z,3.27
2018-09-01T17:45:29.937Z,2.80
2018-09-01T17:47:58.264Z,3.20
2018-09-01T17:50:26.561Z,3.17
2018-09-01T17:52:54.848Z,2.80
2018-09-01T17:55:23.191Z,2.90
2018-09-01T17:57:51.622Z,2.67
2018-09-01T18:00:19.921Z,3.10
2018-09-01T18:02:48.223Z,2.43
2018-09-01T18:05:16.509Z,2.90
2018-09-01T18:07:44.817Z,2.90
2018-09-01T18:11:38.553Z,3.00
2018-09-01T18:14:06.913Z,2.83
2018-09-01T18:16:35.363Z,2.90
2018-09-01T18:19:03.625Z,3.03
2018-09-01T18:21:31.926Z,2.70
2018-09-01T18:24:00.237Z,3.00
2018-09-01T18:26:28.557Z,3.17
2018-09-01T18:28:56.858Z,3.77
2018-09-01T18:31:25.142Z,3.17
2018-09-01T18:33:53.469Z,2.90
2018-09-01T18:36:22.810Z,2.90
2018-09-01T18:38:51.345Z,3.40
2018-09-01T18:41:19.678Z,3.17
2018-09-01T18:43:48.940Z,3.00
2018-09-01T18:46:17.260Z,3.10
2018-09-01T18:48:45.565Z,4.57
2018-09-01T18:51:14.015Z,2.60
2018-09-01T18:53:42.353Z,3.67
2018-09-01T18:56:10.669Z,3.50
2018-09-01T18:58:38.990Z,4.50
2018-09-01T19:01:07.307Z,4.33
2018-09-01T19:03:36.053Z,4.83
2018-09-01T19:06:04.610Z,5.00
2018-09-01T19:08:32.905Z,6.67
2018-09-01T19:11:01.206Z,5.80
2018-09-01T19:13:35.357Z,5.10
2018-09-01T19:16:03.665Z,4.20
2018-09-01T19:18:31.999Z,4.17
2018-09-01T19:21:00.604Z,5.77
2018-09-01T19:23:28.937Z,5.27
2018-09-01T19:25:57.250Z,5.53
2018-09-01T19:28:26.581Z,5.40
2018-09-01T19:30:54.901Z,6.40
2018-09-01T19:33:23.209Z,5.40
2018-09-01T19:35:51.704Z,6.53
2018-09-01T19:38:19.975Z,6.53
2018-09-01T19:40:48.415Z,6.67
2018-09-01T19:43:16.813Z,8.67
2018-09-01T19:45:45.229Z,8.37
2018-09-01T19:48:13.541Z,7.03
2018-09-01T19:50:41.915Z,6.73
2018-09-01T19:53:10.198Z,7.17
2018-09-01T19:55:38.549Z,7.80
2018-09-01T19:58:06.854Z,8.03
2018-09-01T20:00:35.129Z,8.03
2018-09-01T20:03:03.433Z,9.03
2018-09-01T20:05:31.964Z,10.20
2018-09-01T20:08:00.075Z,14.90
2018-09-01T20:10:28.369Z,13.33
2018-09-01T20:12:56.689Z,15.53
2018-09-01T20:15:24.961Z,15.30
2018-09-01T20:17:53.288Z,15.20
2018-09-01T20:20:21.681Z,15.57
2018-09-01T20:22:49.999Z,16.30
2018-09-01T20:25:18.341Z,16.50
2018-09-01T20:27:46.595Z,14.83
2018-09-01T20:30:14.865Z,12.90
2018-09-01T20:32:43.289Z,13.10
2018-09-01T20:35:16.993Z,10.27
2018-09-01T20:37:45.361Z,11.40
2018-09-01T20:40:13.625Z,10.13
2018-09-01T20:42:41.961Z,9.93
2018-09-01T20:45:10.357Z,9.70
2018-09-01T20:47:39.151Z,9.50
2018-09-01T20:50:07.502Z,9.67
2018-09-01T20:52:35.797Z,10.03
2018-09-01T20:55:04.249Z,10.07
2018-09-01T20:57:32.842Z,11.30
2018-09-01T21:00:01.161Z,10.60
2018-09-01T21:02:29.441Z,11.23
2018-09-01T21:04:57.832Z,10.37
2018-09-01T21:07:26.134Z,11.60
2018-09-01T21:09:54.437Z,9.80
2018-09-01T21:12:22.737Z,11.70
2018-09-01T21:14:51.121Z,10.60
2018-09-01T21:17:19.428Z,10.60
2018-09-01T21:19:47.726Z,11.40
2018-09-01T21:22:16.017Z,10.20
2018-09-01T21:24:44.313Z,10.07
2018-09-01T21:27:12.615Z,9.83
2018-09-01T21:29:40.910Z,9.77
2018-09-01T21:32:09.258Z,9.63
2018-09-01T21:34:37.589Z,10.10
2018-09-01T21:37:05.857Z,10.70
2018-09-01T21:39:34.395Z,10.80
2018-09-01T21:42:02.766Z,11.80
2018-09-01T21:44:31.075Z,9.93
2018-09-01T21:46:59.393Z,9.50
2018-09-01T21:49:27.799Z,9.63
2018-09-01T21:51:56.093Z,10.87
2018-09-01T21:54:24.386Z,11.00
2018-09-01T21:56:52.844Z,10.23
2018-09-01T21:59:21.245Z,12.20
2018-09-01T22:01:54.770Z,10.90
2018-09-01T22:04:23.193Z,11.97
2018-09-01T22:06:51.494Z,10.40
2018-09-01T22:09:19.843Z,10.73
2018-09-01T22:11:48.130Z,10.93
2018-09-01T22:14:16.402Z,10.27
2018-09-01T22:16:44.760Z,9.77
2018-09-01T22:19:13.056Z,9.83
2018-09-01T22:21:41.524Z,8.43
2018-09-01T22:24:09.813Z,8.93
2018-09-01T22:26:38.095Z,9.43
2018-09-01T22:29:06.437Z,9.30
2018-09-01T22:31:34.750Z,8.50
2018-09-01T22:34:03.099Z,8.60
2018-09-01T22:36:31.425Z,9.23
2018-09-01T22:38:59.754Z,9.07
2018-09-01T22:41:28.061Z,10.57
2018-09-01T22:43:57.526Z,9.80
2018-09-01T22:46:26.109Z,8.13
2018-09-01T22:48:54.406Z,9.60
2018-09-01T22:51:22.686Z,9.87
2018-09-01T22:53:51.029Z,8.60
2018-09-01T22:56:19.373Z,9.90
2018-09-01T22:58:48.660Z,8.40
2018-09-01T23:01:16.933Z,8.88
2018-09-01T23:03:45.289Z,8.40
2018-09-01T23:06:13.577Z,7.10
2018-09-01T23:08:42.915Z,6.90
2018-09-01T23:11:12.309Z,7.73
2018-09-01T23:13:40.654Z,8.17
2018-09-01T23:16:08.965Z,7.23
2018-09-01T23:18:37.313Z,7.00
2018-09-01T23:21:06.666Z,6.40
2018-09-01T23:23:35.423Z,6.90
2018-09-01T23:26:03.721Z,7.07
2018-09-01T23:28:32.086Z,7.30
2018-09-01T23:31:00.397Z,7.00
2018-09-01T23:33:28.681Z,8.07
2018-09-01T23:35:57.117Z,8.20
2018-09-01T23:38:25.814Z,6.80
2018-09-01T23:40:54.146Z,7.47
2018-09-01T23:43:22.433Z,7.00
2018-09-01T23:45:50.859Z,6.50
2018-09-01T23:48:19.275Z,7.67
2018-09-01T23:50:47.581Z,7.10
2018-09-01T23:53:16.866Z,7.33
2018-09-01T23:55:45.176Z,7.00
2018-09-01T23:58:13.450Z,7.67
